sensor_id;sensor_type;location;lat;lon;timestamp;P1;durP1;ratioP1;P2;durP2;ratioP2
3943;SDS011;1986;52.546;13.428;2023-05-02T00:02:25;28.37;;;26.43;;
3943;SDS011;1986;52.546;13.428;2023-05-02T00:04:52;29.13;;;27.00;;
3943;SDS011;1986;52.546;13.428;2023-05-02T00:07:18;27.63;;;25.83;;
3943;SDS011;1986;52.546;13.428;2023-05-02T00:09:45;28.30;;;26.43;;
3943;SDS011;1986;52.546;13.428;2023-05-02T00:12:12;28.10;;;26.30;;
3943;SDS011;1986;52.546;13.428;2023-05-02T00:14:39;28.00;;;26.10;;
3943;SDS011;1986;52.546;13.428;2023-05-02T00:17:06;28.57;;;26.57;;
3943;SDS011;1986;52.546;13.428;2023-05-02T00:19:38;27.90;;;26.10;;
3943;SDS011;1986;52.546;13.428;2023-05-02T00:22:05;30.60;;;28.10;;
3943;SDS011;1986;52.546;13.428;2023-05-02T00:24:31;27.53;;;25.73;;
3943;SDS011;1986;52.546;13.428;2023-05-02T00:26:58;27.03;;;25.23;;
3943;SDS011;1986;52.546;13.428;2023-05-02T00:29:26;29.50;;;27.60;;
3943;SDS011;1986;52.546;13.428;2023-05-02T00:31:53;28.00;;;26.20;;
3943;SDS011;1986;52.546;13.428;2023-05-02T00:34:20;28.13;;;26.23;;
3943;SDS011;1986;52.546;13.428;2023-05-02T00:36:48;28.97;;;26.90;;
3943;SDS011;1986;52.546;13.428;2023-05-02T00:39:15;29.33;;;27.43;;
3943;SDS011;1986;52.546;13.428;2023-05-02T00:41:42;29.83;;;27.83;;
3943;SDS011;1986;52.546;13.428;2023-05-02T00:44:09;27.70;;;25.90;;
3943;SDS011;1986;52.546;13.428;2023-05-02T00:46:36;26.40;;;24.70;;
3943;SDS011;1986;52.546;13.428;2023-05-02T00:49:03;30.10;;;27.67;;
3943;SDS011;1986;52.546;13.428;2023-05-02T00:51:31;28.90;;;26.50;;
3943;SDS011;1986;52.546;13.428;2023-05-02T00:54:00;27.60;;;25.80;;
3943;SDS011;1986;52.546;13.428;2023-05-02T00:56:27;29.00;;;27.00;;
3943;SDS011;1986;52.546;13.428;2023-05-02T00:58:54;29.97;;;28.07;;
3943;SDS011;1986;52.546;13.428;2023-05-02T01:01:25;31.13;;;29.13;;
3943;SDS011;1986;52.546;13.428;2023-05-02T01:04:03;31.67;;;29.67;;
3943;SDS011;1986;52.546;13.428;2023-05-02T01:06:43;30.67;;;28.70;;
3943;SDS011;1986;52.546;13.428;2023-05-02T01:09:25;31.00;;;28.80;;
3943;SDS011;1986;52.546;13.428;2023-05-02T01:12:00;31.87;;;29.57;;
3943;SDS011;1986;52.546;13.428;2023-05-02T01:14:29;29.37;;;27.57;;
3943;SDS011;1986;52.546;13.428;2023-05-02T01:17:00;29.73;;;27.83;;
3943;SDS011;1986;52.546;13.428;2023-05-02T01:19:30;31.30;;;28.90;;
3943;SDS011;1986;52.546;13.428;2023-05-02T01:22:00;30.43;;;28.43;;
3943;SDS011;1986;52.546;13.428;2023-05-02T01:24:36;33.10;;;30.70;;
3943;SDS011;1986;52.546;13.428;2023-05-02T01:27:14;49.53;;;29.70;;
3943;SDS011;1986;52.546;13.428;2023-05-02T01:29:54;29.27;;;27.37;;
3943;SDS011;1986;52.546;13.428;2023-05-02T01:32:24;31.33;;;29.10;;
3943;SDS011;1986;52.546;13.428;2023-05-02T01:34:54;29.27;;;27.23;;
3943;SDS011;1986;52.546;13.428;2023-05-02T01:37:25;29.40;;;27.40;;
3943;SDS011;1986;52.546;13.428;2023-05-02T01:39:54;29.60;;;27.30;;
3943;SDS011;1986;52.546;13.428;2023-05-02T01:42:22;29.70;;;27.50;;
3943;SDS011;1986;52.546;13.428;2023-05-02T01:44:54;30.40;;;28.30;;
3943;SDS011;1986;52.546;13.428;2023-05-02T01:47:23;32.53;;;29.63;;
3943;SDS011;1986;52.546;13.428;2023-05-02T01:49:51;30.47;;;28.37;;
3943;SDS011;1986;52.546;13.428;2023-05-02T01:52:18;28.57;;;26.67;;
3943;SDS011;1986;52.546;13.428;2023-05-02T01:54:48;28.30;;;26.50;;
3943;SDS011;1986;52.546;13.428;2023-05-02T01:57:17;28.07;;;26.27;;
3943;SDS011;1986;52.546;13.428;2023-05-02T01:59:44;28.27;;;26.47;;
3943;SDS011;1986;52.546;13.428;2023-05-02T02:02:16;28.77;;;26.87;;
3943;SDS011;1986;52.546;13.428;2023-05-02T02:04:43;28.07;;;26.27;;
3943;SDS011;1986;52.546;13.428;2023-05-02T02:07:12;29.93;;;27.63;;
3943;SDS011;1986;52.546;13.428;2023-05-02T02:09:39;28.43;;;25.83;;
3943;SDS011;1986;52.546;13.428;2023-05-02T02:12:10;28.73;;;26.83;;
3943;SDS011;1986;52.546;13.428;2023-05-02T02:14:42;29.97;;;27.43;;
3943;SDS011;1986;52.546;13.428;2023-05-02T02:17:19;28.37;;;26.53;;
3943;SDS011;1986;52.546;13.428;2023-05-02T02:19:50;27.60;;;25.13;;
3943;SDS011;1986;52.546;13.428;2023-05-02T02:22:20;29.47;;;27.17;;
3943;SDS011;1986;52.546;13.428;2023-05-02T02:24:48;26.20;;;24.50;;
3943;SDS011;1986;52.546;13.428;2023-05-02T02:27:17;27.47;;;25.57;;
3943;SDS011;1986;52.546;13.428;2023-05-02T02:29:45;25.73;;;24.13;;
3943;SDS011;1986;52.546;13.428;2023-05-02T02:32:12;27.20;;;25.40;;
3943;SDS011;1986;52.546;13.428;2023-05-02T02:34:40;25.87;;;24.23;;
3943;SDS011;1986;52.546;13.428;2023-05-02T02:37:07;28.10;;;26.00;;
3943;SDS011;1986;52.546;13.428;2023-05-02T02:39:42;25.13;;;23.40;;
3943;SDS011;1986;52.546;13.428;2023-05-02T02:42:17;24.37;;;22.87;;
3943;SDS011;1986;52.546;13.428;2023-05-02T02:44:53;25.07;;;23.57;;
3943;SDS011;1986;52.546;13.428;2023-05-02T02:47:31;24.40;;;22.83;;
3943;SDS011;1986;52.546;13.428;2023-05-02T02:50:13;23.77;;;22.27;;
3943;SDS011;1986;52.546;13.428;2023-05-02T02:52:47;25.03;;;23.47;;
3943;SDS011;1986;52.546;13.428;2023-05-02T02:55:19;24.27;;;22.77;;
3943;SDS011;1986;52.546;13.428;2023-05-02T02:57:57;25.47;;;23.50;;
3943;SDS011;1986;52.546;13.428;2023-05-02T03:00:27;23.20;;;21.80;;
3943;SDS011;1986;52.546;13.428;2023-05-02T03:02:55;24.60;;;23.10;;
3943;SDS011;1986;52.546;13.428;2023-05-02T03:05:23;23.43;;;22.03;;
3943;SDS011;1986;52.546;13.428;2023-05-02T03:07:51;23.73;;;22.23;;
3943;SDS011;1986;52.546;13.428;2023-05-02T03:10:18;25.10;;;23.30;;
3943;SDS011;1986;52.546;13.428;2023-05-02T03:12:47;23.93;;;22.43;;
3943;SDS011;1986;52.546;13.428;2023-05-02T03:15:17;22.87;;;21.47;;
3943;SDS011;1986;52.546;13.428;2023-05-02T03:17:57;23.97;;;22.50;;
3943;SDS011;1986;52.546;13.428;2023-05-02T03:20:26;23.90;;;22.33;;
3943;SDS011;1986;52.546;13.428;2023-05-02T03:22:56;23.30;;;21.90;;
3943;SDS011;1986;52.546;13.428;2023-05-02T03:25:33;22.53;;;21.23;;
3943;SDS011;1986;52.546;13.428;2023-05-02T03:28:01;25.77;;;23.83;;
3943;SDS011;1986;52.546;13.428;2023-05-02T03:30:28;26.27;;;23.53;;
3943;SDS011;1986;52.546;13.428;2023-05-02T03:32:55;23.27;;;21.73;;
3943;SDS011;1986;52.546;13.428;2023-05-02T03:35:22;22.30;;;21.00;;
3943;SDS011;1986;52.546;13.428;2023-05-02T03:37:50;24.40;;;22.57;;
3943;SDS011;1986;52.546;13.428;2023-05-02T03:40:17;23.70;;;22.10;;
3943;SDS011;1986;52.546;13.428;2023-05-02T03:42:45;23.10;;;21.70;;
3943;SDS011;1986;52.546;13.428;2023-05-02T03:45:12;32.53;;;22.47;;
3943;SDS011;1986;52.546;13.428;2023-05-02T03:47:39;22.27;;;20.87;;
3943;SDS011;1986;52.546;13.428;2023-05-02T03:50:07;23.33;;;21.70;;
3943;SDS011;1986;52.546;13.428;2023-05-02T03:52:34;21.67;;;20.37;;
3943;SDS011;1986;52.546;13.428;2023-05-02T03:55:02;22.43;;;21.03;;
3943;SDS011;1986;52.546;13.428;2023-05-02T03:57:31;21.80;;;20.30;;
3943;SDS011;1986;52.546;13.428;2023-05-02T03:59:58;21.13;;;19.87;;
3943;SDS011;1986;52.546;13.428;2023-05-02T04:02:25;20.70;;;19.50;;
3943;SDS011;1986;52.546;13.428;2023-05-02T04:04:52;21.27;;;19.97;;
3943;SDS011;1986;52.546;13.428;2023-05-02T04:07:19;23.57;;;21.57;;
3943;SDS011;1986;52.546;13.428;2023-05-02T04:09:46;21.63;;;20.33;;
3943;SDS011;1986;52.546;13.428;2023-05-02T04:12:15;20.50;;;19.30;;
3943;SDS011;1986;52.546;13.428;2023-05-02T04:14:42;21.10;;;19.90;;
3943;SDS011;1986;52.546;13.428;2023-05-02T04:17:09;21.10;;;19.90;;
3943;SDS011;1986;52.546;13.428;2023-05-02T04:19:35;22.10;;;20.60;;
3943;SDS011;1986;52.546;13.428;2023-05-02T04:22:02;22.60;;;21.10;;
3943;SDS011;1986;52.546;13.428;2023-05-02T04:24:29;23.97;;;21.80;;
3943;SDS011;1986;52.546;13.428;2023-05-02T04:26:56;21.07;;;19.73;;
3943;SDS011;1986;52.546;13.428;2023-05-02T04:29:24;21.37;;;20.07;;
3943;SDS011;1986;52.546;13.428;2023-05-02T04:31:51;51.20;;;21.83;;
3943;SDS011;1986;52.546;13.428;2023-05-02T04:34:18;20.30;;;19.10;;
3943;SDS011;1986;52.546;13.428;2023-05-02T04:36:45;19.70;;;18.60;;
3943;SDS011;1986;52.546;13.428;2023-05-02T04:39:12;20.10;;;19.00;;
3943;SDS011;1986;52.546;13.428;2023-05-02T04:41:39;21.20;;;19.67;;
3943;SDS011;1986;52.546;13.428;2023-05-02T04:44:07;19.80;;;18.70;;
3943;SDS011;1986;52.546;13.428;2023-05-02T04:46:35;21.67;;;20.37;;
3943;SDS011;1986;52.546;13.428;2023-05-02T04:49:02;20.83;;;19.63;;
3943;SDS011;1986;52.546;13.428;2023-05-02T04:51:29;21.43;;;20.03;;
3943;SDS011;1986;52.546;13.428;2023-05-02T04:53:56;21.70;;;20.33;;
3943;SDS011;1986;52.546;13.428;2023-05-02T04:56:23;20.20;;;19.00;;
3943;SDS011;1986;52.546;13.428;2023-05-02T04:58:54;22.33;;;20.90;;
3943;SDS011;1986;52.546;13.428;2023-05-02T05:01:24;22.17;;;20.77;;
3943;SDS011;1986;52.546;13.428;2023-05-02T05:03:53;22.13;;;20.77;;
3943;SDS011;1986;52.546;13.428;2023-05-02T05:06:20;24.10;;;22.30;;
3943;SDS011;1986;52.546;13.428;2023-05-02T05:08:48;22.17;;;20.67;;
3943;SDS011;1986;52.546;13.428;2023-05-02T05:11:15;20.90;;;19.70;;
3943;SDS011;1986;52.546;13.428;2023-05-02T05:13:42;24.67;;;22.47;;
3943;SDS011;1986;52.546;13.428;2023-05-02T05:16:09;21.73;;;20.13;;
3943;SDS011;1986;52.546;13.428;2023-05-02T05:18:36;22.40;;;20.70;;
3943;SDS011;1986;52.546;13.428;2023-05-02T05:21:06;22.17;;;20.70;;
3943;SDS011;1986;52.546;13.428;2023-05-02T05:23:34;20.60;;;19.40;;
3943;SDS011;1986;52.546;13.428;2023-05-02T05:28:47;22.60;;;21.10;;
3943;SDS011;1986;52.546;13.428;2023-05-02T05:31:15;22.57;;;21.07;;
3943;SDS011;1986;52.546;13.428;2023-05-02T05:33:42;21.57;;;19.70;;
3943;SDS011;1986;52.546;13.428;2023-05-02T05:36:11;20.20;;;19.00;;
3943;SDS011;1986;52.546;13.428;2023-05-02T05:38:39;21.13;;;19.80;;
3943;SDS011;1986;52.546;13.428;2023-05-02T05:41:07;21.10;;;19.83;;
3943;SDS011;1986;52.546;13.428;2023-05-02T05:43:35;21.17;;;19.87;;
3943;SDS011;1986;52.546;13.428;2023-05-02T05:46:02;22.17;;;20.67;;
3943;SDS011;1986;52.546;13.428;2023-05-02T05:48:29;21.73;;;20.10;;
3943;SDS011;1986;52.546;13.428;2023-05-02T05:50:56;22.83;;;21.23;;
3943;SDS011;1986;52.546;13.428;2023-05-02T05:53:24;24.27;;;22.37;;
3943;SDS011;1986;52.546;13.428;2023-05-02T05:55:51;22.57;;;20.97;;
3943;SDS011;1986;52.546;13.428;2023-05-02T05:58:18;21.70;;;20.30;;
3943;SDS011;1986;52.546;13.428;2023-05-02T06:00:45;24.73;;;22.20;;
3943;SDS011;1986;52.546;13.428;2023-05-02T06:03:11;23.13;;;21.53;;
3943;SDS011;1986;52.546;13.428;2023-05-02T06:05:38;23.80;;;21.87;;
3943;SDS011;1986;52.546;13.428;2023-05-02T06:08:05;23.70;;;22.00;;
3943;SDS011;1986;52.546;13.428;2023-05-02T06:10:34;25.60;;;23.13;;
3943;SDS011;1986;52.546;13.428;2023-05-02T06:13:01;23.20;;;21.60;;
3943;SDS011;1986;52.546;13.428;2023-05-02T06:15:27;22.93;;;21.43;;
3943;SDS011;1986;52.546;13.428;2023-05-02T06:17:54;23.77;;;21.80;;
3943;SDS011;1986;52.546;13.428;2023-05-02T06:20:21;25.67;;;23.53;;
3943;SDS011;1986;52.546;13.428;2023-05-02T06:22:48;22.50;;;21.00;;
3943;SDS011;1986;52.546;13.428;2023-05-02T06:25:15;22.50;;;20.90;;
3943;SDS011;1986;52.546;13.428;2023-05-02T06:27:46;25.20;;;23.23;;
3943;SDS011;1986;52.546;13.428;2023-05-02T06:30:13;22.50;;;21.00;;
3943;SDS011;1986;52.546;13.428;2023-05-02T06:32:40;25.80;;;23.50;;
3943;SDS011;1986;52.546;13.428;2023-05-02T06:35:08;24.80;;;22.90;;
3943;SDS011;1986;52.546;13.428;2023-05-02T06:37:35;24.23;;;22.20;;
3943;SDS011;1986;52.546;13.428;2023-05-02T06:40:02;25.50;;;23.60;;
3943;SDS011;1986;52.546;13.428;2023-05-02T06:42:30;24.47;;;22.47;;
3943;SDS011;1986;52.546;13.428;2023-05-02T06:44:58;28.33;;;21.73;;
3943;SDS011;1986;52.546;13.428;2023-05-02T06:47:25;25.87;;;23.70;;
3943;SDS011;1986;52.546;13.428;2023-05-02T06:49:52;24.17;;;22.40;;
3943;SDS011;1986;52.546;13.428;2023-05-02T06:52:19;25.23;;;22.90;;
3943;SDS011;1986;52.546;13.428;2023-05-02T06:54:47;29.73;;;25.17;;
3943;SDS011;1986;52.546;13.428;2023-05-02T06:57:14;23.93;;;22.10;;
3943;SDS011;1986;52.546;13.428;2023-05-02T06:59:41;24.13;;;22.37;;
3943;SDS011;1986;52.546;13.428;2023-05-02T07:02:10;23.03;;;21.53;;
3943;SDS011;1986;52.546;13.428;2023-05-02T07:04:36;23.97;;;22.17;;
3943;SDS011;1986;52.546;13.428;2023-05-02T07:07:03;24.40;;;22.40;;
3943;SDS011;1986;52.546;13.428;2023-05-02T07:09:31;24.03;;;21.90;;
3943;SDS011;1986;52.546;13.428;2023-05-02T07:11:59;28.73;;;23.70;;
3943;SDS011;1986;52.546;13.428;2023-05-02T07:14:26;24.10;;;22.50;;
3943;SDS011;1986;52.546;13.428;2023-05-02T07:16:57;24.27;;;22.00;;
3943;SDS011;1986;52.546;13.428;2023-05-02T07:19:26;23.37;;;21.50;;
3943;SDS011;1986;52.546;13.428;2023-05-02T07:21:53;22.43;;;21.00;;
3943;SDS011;1986;52.546;13.428;2023-05-02T07:24:20;25.80;;;23.23;;
3943;SDS011;1986;52.546;13.428;2023-05-02T07:26:47;23.63;;;22.00;;
3943;SDS011;1986;52.546;13.428;2023-05-02T07:29:15;26.00;;;23.90;;
3943;SDS011;1986;52.546;13.428;2023-05-02T07:31:42;26.30;;;24.10;;
3943;SDS011;1986;52.546;13.428;2023-05-02T07:34:09;23.80;;;21.77;;
3943;SDS011;1986;52.546;13.428;2023-05-02T07:36:38;23.60;;;21.80;;
3943;SDS011;1986;52.546;13.428;2023-05-02T07:39:05;23.60;;;21.20;;
3943;SDS011;1986;52.546;13.428;2023-05-02T07:41:32;24.50;;;22.30;;
3943;SDS011;1986;52.546;13.428;2023-05-02T07:43:59;23.60;;;22.00;;
3943;SDS011;1986;52.546;13.428;2023-05-02T07:46:26;24.47;;;22.47;;
3943;SDS011;1986;52.546;13.428;2023-05-02T07:48:53;23.40;;;21.90;;
3943;SDS011;1986;52.546;13.428;2023-05-02T07:51:20;21.60;;;20.30;;
3943;SDS011;1986;52.546;13.428;2023-05-02T07:53:49;25.60;;;23.50;;
3943;SDS011;1986;52.546;13.428;2023-05-02T07:56:17;21.47;;;20.17;;
3943;SDS011;1986;52.546;13.428;2023-05-02T07:58:45;22.70;;;21.30;;
3943;SDS011;1986;52.546;13.428;2023-05-02T08:01:12;34.43;;;23.47;;
3943;SDS011;1986;52.546;13.428;2023-05-02T08:03:39;22.83;;;21.30;;
3943;SDS011;1986;52.546;13.428;2023-05-02T08:06:06;21.37;;;20.07;;
3943;SDS011;1986;52.546;13.428;2023-05-02T08:08:33;24.07;;;22.37;;
3943;SDS011;1986;52.546;13.428;2023-05-02T08:11:02;23.00;;;21.37;;
3943;SDS011;1986;52.546;13.428;2023-05-02T08:13:31;23.90;;;22.10;;
3943;SDS011;1986;52.546;13.428;2023-05-02T08:15:58;22.33;;;20.93;;
3943;SDS011;1986;52.546;13.428;2023-05-02T08:18:26;24.20;;;22.40;;
3943;SDS011;1986;52.546;13.428;2023-05-02T08:20:53;21.80;;;20.50;;
3943;SDS011;1986;52.546;13.428;2023-05-02T08:23:22;23.00;;;21.50;;
3943;SDS011;1986;52.546;13.428;2023-05-02T08:25:49;22.80;;;21.40;;
3943;SDS011;1986;52.546;13.428;2023-05-02T08:28:18;21.73;;;20.43;;
3943;SDS011;1986;52.546;13.428;2023-05-02T08:30:45;23.40;;;21.80;;
3943;SDS011;1986;52.546;13.428;2023-05-02T08:33:13;22.40;;;21.10;;
3943;SDS011;1986;52.546;13.428;2023-05-02T08:35:40;24.70;;;22.87;;
3943;SDS011;1986;52.546;13.428;2023-05-02T08:38:07;22.93;;;21.43;;
3943;SDS011;1986;52.546;13.428;2023-05-02T08:40:35;21.87;;;20.57;;
3943;SDS011;1986;52.546;13.428;2023-05-02T08:43:03;22.93;;;21.40;;
3943;SDS011;1986;52.546;13.428;2023-05-02T08:45:31;23.00;;;21.10;;
3943;SDS011;1986;52.546;13.428;2023-05-02T08:48:04;22.93;;;21.60;;
3943;SDS011;1986;52.546;13.428;2023-05-02T08:50:35;21.47;;;20.27;;
3943;SDS011;1986;52.546;13.428;2023-05-02T08:53:03;22.17;;;20.80;;
3943;SDS011;1986;52.546;13.428;2023-05-02T08:55:32;23.53;;;21.93;;
3943;SDS011;1986;52.546;13.428;2023-05-02T08:58:00;31.20;;;21.20;;
3943;SDS011;1986;52.546;13.428;2023-05-02T09:00:29;22.23;;;20.63;;
3943;SDS011;1986;52.546;13.428;2023-05-02T09:03:01;22.17;;;20.67;;
3943;SDS011;1986;52.546;13.428;2023-05-02T09:05:33;21.10;;;19.90;;
3943;SDS011;1986;52.546;13.428;2023-05-02T09:08:05;21.00;;;19.90;;
3943;SDS011;1986;52.546;13.428;2023-05-02T09:10:35;20.43;;;19.27;;
3943;SDS011;1986;52.546;13.428;2023-05-02T09:16:09;22.00;;;20.47;;
3943;SDS011;1986;52.546;13.428;2023-05-02T09:18:39;22.53;;;20.60;;
3943;SDS011;1986;52.546;13.428;2023-05-02T09:21:08;21.23;;;20.03;;
3943;SDS011;1986;52.546;13.428;2023-05-02T09:23:36;22.83;;;21.03;;
3943;SDS011;1986;52.546;13.428;2023-05-02T09:26:15;20.67;;;19.57;;
3943;SDS011;1986;52.546;13.428;2023-05-02T09:28:43;21.70;;;20.40;;
3943;SDS011;1986;52.546;13.428;2023-05-02T09:31:12;19.40;;;18.40;;
3943;SDS011;1986;52.546;13.428;2023-05-02T09:33:41;20.37;;;19.27;;
3943;SDS011;1986;52.546;13.428;2023-05-02T09:36:09;20.40;;;19.30;;
3943;SDS011;1986;52.546;13.428;2023-05-02T09:38:38;20.90;;;19.80;;
3943;SDS011;1986;52.546;13.428;2023-05-02T09:41:06;21.90;;;20.40;;
3943;SDS011;1986;52.546;13.428;2023-05-02T09:43:33;20.00;;;18.80;;
3943;SDS011;1986;52.546;13.428;2023-05-02T09:46:01;23.07;;;21.50;;
3943;SDS011;1986;52.546;13.428;2023-05-02T09:48:30;22.50;;;20.63;;
3943;SDS011;1986;52.546;13.428;2023-05-02T09:51:00;19.53;;;18.43;;
3943;SDS011;1986;52.546;13.428;2023-05-02T09:53:27;20.43;;;19.33;;
3943;SDS011;1986;52.546;13.428;2023-05-02T09:56:03;19.93;;;18.83;;
3943;SDS011;1986;52.546;13.428;2023-05-02T09:58:31;24.07;;;19.83;;
3943;SDS011;1986;52.546;13.428;2023-05-02T10:00:57;20.50;;;19.20;;
3943;SDS011;1986;52.546;13.428;2023-05-02T10:03:25;22.97;;;21.27;;
3943;SDS011;1986;52.546;13.428;2023-05-02T10:05:53;20.83;;;19.60;;
3943;SDS011;1986;52.546;13.428;2023-05-02T10:08:25;21.47;;;20.10;;
3943;SDS011;1986;52.546;13.428;2023-05-02T10:10:54;20.03;;;18.93;;
3943;SDS011;1986;52.546;13.428;2023-05-02T10:13:22;22.67;;;20.83;;
3943;SDS011;1986;52.546;13.428;2023-05-02T10:15:57;20.13;;;19.00;;
3943;SDS011;1986;52.546;13.428;2023-05-02T10:18:26;22.03;;;20.53;;
3943;SDS011;1986;52.546;13.428;2023-05-02T10:20:59;20.50;;;19.43;;
3943;SDS011;1986;52.546;13.428;2023-05-02T10:23:34;20.27;;;19.10;;
3943;SDS011;1986;52.546;13.428;2023-05-02T10:26:03;20.53;;;19.33;;
3943;SDS011;1986;52.546;13.428;2023-05-02T10:28:31;21.07;;;19.90;;
3943;SDS011;1986;52.546;13.428;2023-05-02T10:30:58;20.93;;;19.73;;
3943;SDS011;1986;52.546;13.428;2023-05-02T10:33:27;20.70;;;19.40;;
3943;SDS011;1986;52.546;13.428;2023-05-02T10:35:55;20.20;;;19.10;;
3943;SDS011;1986;52.546;13.428;2023-05-02T10:38:22;21.00;;;19.53;;
3943;SDS011;1986;52.546;13.428;2023-05-02T10:40:52;21.30;;;19.80;;
3943;SDS011;1986;52.546;13.428;2023-05-02T10:43:22;22.33;;;20.60;;
3943;SDS011;1986;52.546;13.428;2023-05-02T10:45:51;20.93;;;19.53;;
3943;SDS011;1986;52.546;13.428;2023-05-02T10:48:19;22.70;;;20.40;;
3943;SDS011;1986;52.546;13.428;2023-05-02T10:50:48;19.50;;;18.43;;
3943;SDS011;1986;52.546;13.428;2023-05-02T10:53:25;22.33;;;20.23;;
3943;SDS011;1986;52.546;13.428;2023-05-02T10:56:09;18.80;;;17.90;;
3943;SDS011;1986;52.546;13.428;2023-05-02T10:58:41;18.50;;;17.60;;
3943;SDS011;1986;52.546;13.428;2023-05-02T11:04:06;22.33;;;20.47;;
3943;SDS011;1986;52.546;13.428;2023-05-02T11:07:15;20.47;;;19.17;;
3943;SDS011;1986;52.546;13.428;2023-05-02T11:09:42;19.57;;;18.13;;
3943;SDS011;1986;52.546;13.428;2023-05-02T11:12:11;19.23;;;17.97;;
3943;SDS011;1986;52.546;13.428;2023-05-02T11:15:11;18.30;;;17.40;;
3943;SDS011;1986;52.546;13.428;2023-05-02T11:17:57;19.53;;;18.53;;
3943;SDS011;1986;52.546;13.428;2023-05-02T11:20:25;19.17;;;18.17;;
3943;SDS011;1986;52.546;13.428;2023-05-02T11:22:57;20.07;;;18.50;;
3943;SDS011;1986;52.546;13.428;2023-05-02T11:25:53;20.30;;;19.00;;
3943;SDS011;1986;52.546;13.428;2023-05-02T11:34:20;20.97;;;19.67;;
3943;SDS011;1986;52.546;13.428;2023-05-02T11:36:49;19.50;;;18.50;;
3943;SDS011;1986;52.546;13.428;2023-05-02T11:39:19;23.17;;;21.17;;
3943;SDS011;1986;52.546;13.428;2023-05-02T11:41:47;20.83;;;19.57;;
3943;SDS011;1986;52.546;13.428;2023-05-02T11:44:16;21.43;;;19.90;;
3943;SDS011;1986;52.546;13.428;2023-05-02T11:46:43;19.87;;;18.87;;
3943;SDS011;1986;52.546;13.428;2023-05-02T11:49:12;21.03;;;19.40;;
3943;SDS011;1986;52.546;13.428;2023-05-02T11:51:39;22.27;;;20.97;;
3943;SDS011;1986;52.546;13.428;2023-05-02T11:54:07;21.87;;;20.33;;
3943;SDS011;1986;52.546;13.428;2023-05-02T11:56:34;21.47;;;19.73;;
3943;SDS011;1986;52.546;13.428;2023-05-02T11:59:02;21.10;;;19.70;;
3943;SDS011;1986;52.546;13.428;2023-05-02T12:01:31;22.47;;;20.00;;
3943;SDS011;1986;52.546;13.428;2023-05-02T12:04:02;22.80;;;20.17;;
3943;SDS011;1986;52.546;13.428;2023-05-02T12:06:31;25.37;;;23.13;;
3943;SDS011;1986;52.546;13.428;2023-05-02T12:09:07;21.53;;;20.23;;
3943;SDS011;1986;52.546;13.428;2023-05-02T12:11:35;21.07;;;19.77;;
3943;SDS011;1986;52.546;13.428;2023-05-02T12:14:02;19.77;;;18.77;;
3943;SDS011;1986;52.546;13.428;2023-05-02T12:16:32;20.63;;;19.53;;
3943;SDS011;1986;52.546;13.428;2023-05-02T12:19:00;20.13;;;19.10;;
3943;SDS011;1986;52.546;13.428;2023-05-02T12:21:28;22.27;;;20.87;;
3943;SDS011;1986;52.546;13.428;2023-05-02T12:23:57;20.87;;;19.77;;
3943;SDS011;1986;52.546;13.428;2023-05-02T12:26:24;20.67;;;19.57;;
3943;SDS011;1986;52.546;13.428;2023-05-02T12:28:55;21.17;;;20.07;;
3943;SDS011;1986;52.546;13.428;2023-05-02T12:31:22;22.30;;;21.10;;
3943;SDS011;1986;52.546;13.428;2023-05-02T12:33:51;22.80;;;21.17;;
3943;SDS011;1986;52.546;13.428;2023-05-02T12:36:21;23.50;;;22.00;;
3943;SDS011;1986;52.546;13.428;2023-05-02T12:38:50;21.03;;;19.67;;
3943;SDS011;1986;52.546;13.428;2023-05-02T12:41:18;22.67;;;20.80;;
3943;SDS011;1986;52.546;13.428;2023-05-02T12:43:55;22.07;;;19.90;;
3943;SDS011;1986;52.546;13.428;2023-05-02T12:46:22;22.37;;;20.67;;
3943;SDS011;1986;52.546;13.428;2023-05-02T12:49:02;28.73;;;19.77;;
3943;SDS011;1986;52.546;13.428;2023-05-02T12:51:32;21.20;;;20.00;;
3943;SDS011;1986;52.546;13.428;2023-05-02T12:53:59;22.70;;;21.30;;
3943;SDS011;1986;52.546;13.428;2023-05-02T12:56:26;24.70;;;22.30;;
3943;SDS011;1986;52.546;13.428;2023-05-02T12:58:56;22.03;;;20.73;;
3943;SDS011;1986;52.546;13.428;2023-05-02T13:01:25;22.67;;;21.37;;
3943;SDS011;1986;52.546;13.428;2023-05-02T13:03:55;24.07;;;22.50;;
3943;SDS011;1986;52.546;13.428;2023-05-02T13:06:26;23.93;;;22.50;;
3943;SDS011;1986;52.546;13.428;2023-05-02T13:08:53;23.70;;;22.20;;
3943;SDS011;1986;52.546;13.428;2023-05-02T13:11:21;22.27;;;20.33;;
3943;SDS011;1986;52.546;13.428;2023-05-02T13:13:48;26.13;;;21.73;;
3943;SDS011;1986;52.546;13.428;2023-05-02T13:16:15;21.17;;;19.97;;
3943;SDS011;1986;52.546;13.428;2023-05-02T13:18:43;29.87;;;22.23;;
3943;SDS011;1986;52.546;13.428;2023-05-02T13:21:10;20.80;;;19.70;;
3943;SDS011;1986;52.546;13.428;2023-05-02T13:23:39;22.87;;;21.20;;
3943;SDS011;1986;52.546;13.428;2023-05-02T13:26:08;23.10;;;21.73;;
3943;SDS011;1986;52.546;13.428;2023-05-02T13:28:36;22.10;;;20.77;;
3943;SDS011;1986;52.546;13.428;2023-05-02T13:31:03;23.13;;;21.47;;
3943;SDS011;1986;52.546;13.428;2023-05-02T13:33:30;22.03;;;20.73;;
3943;SDS011;1986;52.546;13.428;2023-05-02T13:35:57;23.53;;;21.83;;
3943;SDS011;1986;52.546;13.428;2023-05-02T13:38:24;23.17;;;21.77;;
3943;SDS011;1986;52.546;13.428;2023-05-02T13:40:53;22.10;;;20.80;;
3943;SDS011;1986;52.546;13.428;2023-05-02T13:43:20;23.70;;;22.00;;
3943;SDS011;1986;52.546;13.428;2023-05-02T13:45:48;22.80;;;21.00;;
3943;SDS011;1986;52.546;13.428;2023-05-02T13:48:16;22.73;;;21.43;;
3943;SDS011;1986;52.546;13.428;2023-05-02T13:50:43;26.03;;;23.97;;
3943;SDS011;1986;52.546;13.428;2023-05-02T13:53:10;24.27;;;22.30;;
3943;SDS011;1986;52.546;13.428;2023-05-02T13:55:37;24.97;;;23.00;;
3943;SDS011;1986;52.546;13.428;2023-05-02T13:58:06;23.10;;;21.27;;
3943;SDS011;1986;52.546;13.428;2023-05-02T14:00:33;24.63;;;22.27;;
3943;SDS011;1986;52.546;13.428;2023-05-02T14:03:01;23.80;;;22.07;;
3943;SDS011;1986;52.546;13.428;2023-05-02T14:05:29;25.40;;;23.30;;
3943;SDS011;1986;52.546;13.428;2023-05-02T14:07:56;23.20;;;21.57;;
3943;SDS011;1986;52.546;13.428;2023-05-02T14:10:23;24.77;;;22.87;;
3943;SDS011;1986;52.546;13.428;2023-05-02T14:12:50;24.53;;;22.73;;
3943;SDS011;1986;52.546;13.428;2023-05-02T14:15:18;22.63;;;21.33;;
3943;SDS011;1986;52.546;13.428;2023-05-02T14:17:45;24.43;;;22.53;;
3943;SDS011;1986;52.546;13.428;2023-05-02T14:20:14;22.87;;;21.47;;
3943;SDS011;1986;52.546;13.428;2023-05-02T14:22:41;24.23;;;22.33;;
3943;SDS011;1986;52.546;13.428;2023-05-02T14:25:08;24.00;;;22.20;;
3943;SDS011;1986;52.546;13.428;2023-05-02T14:27:37;24.00;;;22.10;;
3943;SDS011;1986;52.546;13.428;2023-05-02T14:30:04;22.33;;;20.83;;
3943;SDS011;1986;52.546;13.428;2023-05-02T14:32:33;22.97;;;21.30;;
3943;SDS011;1986;52.546;13.428;2023-05-02T14:35:00;22.50;;;21.00;;
3943;SDS011;1986;52.546;13.428;2023-05-02T14:37:27;21.80;;;20.30;;
3943;SDS011;1986;52.546;13.428;2023-05-02T14:39:59;20.83;;;19.63;;
3943;SDS011;1986;52.546;13.428;2023-05-02T14:42:26;22.97;;;20.93;;
3943;SDS011;1986;52.546;13.428;2023-05-02T14:44:54;25.80;;;23.07;;
3943;SDS011;1986;52.546;13.428;2023-05-02T14:47:21;21.77;;;20.37;;
3943;SDS011;1986;52.546;13.428;2023-05-02T14:49:50;22.47;;;20.97;;
3943;SDS011;1986;52.546;13.428;2023-05-02T14:52:18;30.97;;;21.10;;
3943;SDS011;1986;52.546;13.428;2023-05-02T14:54:46;22.20;;;20.90;;
3943;SDS011;1986;52.546;13.428;2023-05-02T14:57:13;21.90;;;20.40;;
3943;SDS011;1986;52.546;13.428;2023-05-02T14:59:40;22.63;;;20.87;;